Observations for LEVALDIGI, Italy (LIMZ)

LIMZ 201950Z 22006KT CAVOK 03/01 Q1025  
LIMZ 201850Z 27003KT CAVOK 06/03 Q1024  
LIMZ 201750Z 33003KT CAVOK 09/03 Q1024  
LIMZ 201650Z 33002MPS CAVOK 12/03 Q1023 
LIMZ 201550Z 36003KT CAVOK 13/02 Q1023  
LIMZ 201450Z 34004KT 290V030 CAVOK 13/02 Q1023  
LIMZ 201350Z 04003KT 320V100 CAVOK 13/03 Q1023  
LIMZ 201250Z 03004KT 340V090 8000 NSC 12/04 Q1023   
LIMZ 201150Z VRB03KT 8000 NSC 11/03 Q1024   
LIMZ 201050Z VRB02KT 7000 NSC 10/02 Q1024   
LIMZ 200950Z VRB02KT 7000 NSC 08/03 Q1024   
LIMZ 200850Z VRB01KT CAVOK 05/03 Q1024  
LIMZ 200750Z 25002KT CAVOK 01/M00 Q1024 
LIMZ 200650Z 22003KT CAVOK M01/M02 Q1023
LIMZ 200600Z 22003KT CAVOK M01/M03 Q1022
LIMZ 191950Z 14003KT CAVOK 04/02 Q1021